createdAt,value
2022-12-02T00:00:26.058Z,17.97
2022-12-02T00:00:58.086Z,17.93
2022-12-02T00:01:32.669Z,18.03
2022-12-02T00:02:07.386Z,17.97
2022-12-02T00:02:39.498Z,18.90
2022-12-02T00:03:13.227Z,17.80
2022-12-02T00:08:14.551Z,17.77
2022-12-02T00:08:46.596Z,19.17
2022-12-02T00:09:29.966Z,18.60
2022-12-02T00:10:01.957Z,18.90
2022-12-02T00:10:34.411Z,18.30
2022-12-02T00:11:19.834Z,19.47
2022-12-02T00:11:52.081Z,18.27
2022-12-02T00:12:25.445Z,18.63
2022-12-02T00:13:05.469Z,18.43
2022-12-02T00:13:42.075Z,19.77
2022-12-02T00:14:24.655Z,19.30
2022-12-02T00:14:57.947Z,19.20
2022-12-02T00:15:38.400Z,18.33
2022-12-02T00:16:19.866Z,18.13
2022-12-02T00:16:52.455Z,18.17
2022-12-02T00:17:24.755Z,18.67
2022-12-02T00:17:56.723Z,18.80
2022-12-02T00:18:29.381Z,19.50
2022-12-02T00:19:01.393Z,19.03
2022-12-02T00:19:33.417Z,18.60
2022-12-02T00:20:05.706Z,18.97
2022-12-02T00:20:38.279Z,18.17
2022-12-02T00:21:10.266Z,19.10
2022-12-02T00:21:42.298Z,18.77
2022-12-02T00:22:14.312Z,19.53
2022-12-02T00:22:46.307Z,18.77
2022-12-02T00:23:19.053Z,19.57
2022-12-02T00:23:51.058Z,19.97
2022-12-02T00:24:23.039Z,19.00
2022-12-02T00:24:55.056Z,19.33
2022-12-02T00:25:27.072Z,19.83
2022-12-02T00:25:59.087Z,19.70
2022-12-02T00:26:31.114Z,19.40
2022-12-02T00:27:03.083Z,19.43
2022-12-02T00:27:35.083Z,19.00
2022-12-02T00:28:07.095Z,19.83
2022-12-02T00:28:39.395Z,19.63
2022-12-02T00:29:11.596Z,19.47
2022-12-02T00:29:43.543Z,19.73
2022-12-02T00:30:16.260Z,20.77
2022-12-02T00:30:48.527Z,19.80
2022-12-02T00:31:20.622Z,21.53
2022-12-02T00:31:53.852Z,20.53
2022-12-02T00:32:25.864Z,19.97
2022-12-02T00:32:57.899Z,19.93
2022-12-02T00:33:29.982Z,19.10
2022-12-02T00:34:02.389Z,20.20
2022-12-02T00:34:34.999Z,19.63
2022-12-02T00:35:07.226Z,20.10
2022-12-02T00:35:39.621Z,19.70
2022-12-02T00:36:11.671Z,20.33
2022-12-02T00:36:43.730Z,20.03
2022-12-02T00:37:15.805Z,20.20
2022-12-02T00:37:47.755Z,20.70
2022-12-02T00:38:19.681Z,19.97
2022-12-02T00:38:51.676Z,19.97
2022-12-02T00:39:23.664Z,21.07
2022-12-02T00:39:55.613Z,20.80
2022-12-02T00:40:27.906Z,19.57
2022-12-02T00:40:59.890Z,20.90
2022-12-02T00:41:31.893Z,19.37
2022-12-02T00:42:03.948Z,20.60
2022-12-02T00:42:35.948Z,21.33
2022-12-02T00:43:27.484Z,22.30
2022-12-02T00:44:17.868Z,19.67
2022-12-02T00:45:08.623Z,20.90
2022-12-02T00:45:59.110Z,21.17
2022-12-02T00:46:42.094Z,20.63
2022-12-02T00:47:14.126Z,20.33
2022-12-02T00:47:46.274Z,20.67
2022-12-02T00:48:18.251Z,19.97
2022-12-02T00:48:50.325Z,21.27
2022-12-02T00:49:22.535Z,20.27
2022-12-02T00:49:55.044Z,21.37
2022-12-02T00:50:27.864Z,20.40
2022-12-02T00:51:00.127Z,19.90
2022-12-02T00:51:32.378Z,20.77
2022-12-02T00:52:04.574Z,19.97
2022-12-02T00:52:36.668Z,20.87
2022-12-02T00:53:08.807Z,20.40
2022-12-02T00:53:40.811Z,20.87
2022-12-02T00:54:13.471Z,20.40
2022-12-02T00:54:45.509Z,21.73
2022-12-02T00:55:17.793Z,21.27
2022-12-02T00:55:49.979Z,20.60
2022-12-02T00:56:22.491Z,20.30
2022-12-02T00:56:55.180Z,21.60
2022-12-02T00:57:27.780Z,20.80
2022-12-02T00:57:59.928Z,21.33
2022-12-02T00:58:32.506Z,21.33
2022-12-02T00:59:05.224Z,21.17
2022-12-02T00:59:37.253Z,20.97
2022-12-02T01:00:09.690Z,20.50
2022-12-02T01:00:41.878Z,22.20
2022-12-02T01:01:14.309Z,22.20
2022-12-02T01:01:46.554Z,21.73
2022-12-02T01:02:18.728Z,21.67
2022-12-02T01:02:50.847Z,21.63
2022-12-02T01:03:23.132Z,21.20
2022-12-02T01:03:56.037Z,21.00
2022-12-02T01:04:28.041Z,22.00
2022-12-02T01:05:00.017Z,22.20
2022-12-02T01:05:32.029Z,22.13
2022-12-02T01:06:04.095Z,21.80
2022-12-02T01:06:36.095Z,22.43
2022-12-02T01:07:08.160Z,21.53
2022-12-02T01:07:40.289Z,22.23
2022-12-02T01:08:12.438Z,22.40
2022-12-02T01:08:44.543Z,22.00
2022-12-02T01:09:16.591Z,22.30
2022-12-02T01:09:48.698Z,21.70
2022-12-02T01:10:20.741Z,21.53
2022-12-02T01:10:53.564Z,21.83
2022-12-02T01:11:26.023Z,21.60
2022-12-02T01:11:58.085Z,23.20
2022-12-02T01:12:30.153Z,22.27
2022-12-02T01:13:02.290Z,21.77
2022-12-02T01:13:34.347Z,22.67
2022-12-02T01:14:06.323Z,21.87
2022-12-02T01:14:38.645Z,22.77
2022-12-02T01:15:11.088Z,22.47
2022-12-02T01:15:43.068Z,22.83
2022-12-02T01:16:15.315Z,22.10
2022-12-02T01:16:47.405Z,23.30
2022-12-02T01:17:19.418Z,22.60
2022-12-02T01:17:51.465Z,22.37
2022-12-02T01:18:23.607Z,21.93
2022-12-02T01:18:55.740Z,21.57
2022-12-02T01:19:27.779Z,23.80
2022-12-02T01:19:59.768Z,22.90
2022-12-02T01:20:31.804Z,21.80
2022-12-02T01:21:03.920Z,21.97
2022-12-02T01:21:35.960Z,22.13
2022-12-02T01:22:07.979Z,23.83
2022-12-02T01:22:40.023Z,23.27
2022-12-02T01:23:12.307Z,22.13
2022-12-02T01:23:44.434Z,22.97
2022-12-02T01:24:16.475Z,23.33
2022-12-02T01:24:48.997Z,21.83
2022-12-02T01:25:21.326Z,23.30
2022-12-02T01:25:53.339Z,22.90
2022-12-02T01:26:25.397Z,22.30
2022-12-02T01:26:57.403Z,22.97
2022-12-02T01:27:29.414Z,22.73
2022-12-02T01:28:01.453Z,21.63
2022-12-02T01:28:33.885Z,23.80
2022-12-02T01:29:06.490Z,23.20
2022-12-02T01:29:38.497Z,22.20
2022-12-02T01:30:10.830Z,24.03
2022-12-02T01:30:43.021Z,22.30
2022-12-02T01:31:15.322Z,22.10
2022-12-02T01:31:47.489Z,23.33
2022-12-02T01:32:20.992Z,23.43
2022-12-02T01:32:53.180Z,23.63
2022-12-02T01:33:25.161Z,23.83
2022-12-02T01:33:57.159Z,23.63
2022-12-02T01:34:29.260Z,23.50
2022-12-02T01:35:01.257Z,22.97
2022-12-02T01:35:33.360Z,22.10
2022-12-02T01:36:05.526Z,22.97
2022-12-02T01:36:38.007Z,22.87
2022-12-02T01:37:10.087Z,21.53
2022-12-02T01:37:42.099Z,22.77
2022-12-02T01:38:14.145Z,24.00
2022-12-02T01:38:46.144Z,23.27
2022-12-02T01:39:18.192Z,23.40
2022-12-02T01:39:50.226Z,22.23
2022-12-02T01:40:22.283Z,22.43
2022-12-02T01:40:54.291Z,22.50
2022-12-02T01:41:26.567Z,23.67
2022-12-02T01:41:59.226Z,23.33
2022-12-02T01:42:31.287Z,22.63
2022-12-02T01:43:03.408Z,22.23
2022-12-02T01:43:35.640Z,23.03
2022-12-02T01:44:09.417Z,22.20
2022-12-02T01:44:41.418Z,22.47
2022-12-02T01:45:13.527Z,23.47
2022-12-02T01:45:45.727Z,22.60
2022-12-02T01:46:17.959Z,22.83
2022-12-02T01:46:49.980Z,23.13
2022-12-02T01:47:22.042Z,23.63
2022-12-02T02:03:15.221Z,23.53
2022-12-02T02:03:47.425Z,22.23
2022-12-02T02:04:19.501Z,23.77
2022-12-02T02:04:52.685Z,23.17
2022-12-02T02:05:29.029Z,23.43
2022-12-02T02:06:01.145Z,22.90
2022-12-02T02:06:41.946Z,22.80
2022-12-02T02:07:14.069Z,22.90
2022-12-02T02:07:47.799Z,24.27
2022-12-02T02:08:19.944Z,23.87
2022-12-02T02:08:52.323Z,22.13
2022-12-02T02:09:24.347Z,21.77
2022-12-02T02:09:56.376Z,22.73
2022-12-02T02:10:28.807Z,23.00
2022-12-02T02:11:02.602Z,23.27
2022-12-02T02:11:35.219Z,23.33
2022-12-02T02:12:07.229Z,22.83
2022-12-02T02:12:39.614Z,24.50
2022-12-02T02:13:12.928Z,22.73
2022-12-02T02:13:45.020Z,22.83
2022-12-02T02:14:17.062Z,23.50
2022-12-02T02:14:49.511Z,23.47
2022-12-02T02:15:22.627Z,22.63
2022-12-02T02:15:54.628Z,23.57
2022-12-02T02:16:26.866Z,24.10
2022-12-02T02:16:59.159Z,23.07
2022-12-02T02:17:31.250Z,24.33
2022-12-02T02:18:05.433Z,23.43
2022-12-02T02:18:38.102Z,23.03
2022-12-02T02:19:12.307Z,23.60
2022-12-02T02:19:44.870Z,23.13
2022-12-02T02:20:18.329Z,23.33
2022-12-02T02:20:50.982Z,22.83
2022-12-02T02:21:24.827Z,24.07
2022-12-02T02:27:44.163Z,23.77
2022-12-02T02:28:16.267Z,24.10
2022-12-02T02:28:48.935Z,23.83
2022-12-02T02:29:21.133Z,24.13
2022-12-02T02:29:54.066Z,24.17
2022-12-02T02:30:31.235Z,23.43
2022-12-02T02:31:03.863Z,23.53
2022-12-02T02:31:43.780Z,23.60
2022-12-02T02:32:16.803Z,24.60
2022-12-02T02:32:49.765Z,23.90
2022-12-02T02:33:21.904Z,24.03
2022-12-02T02:33:54.050Z,23.30
2022-12-02T02:34:26.112Z,23.20
2022-12-02T02:34:58.403Z,24.90
2022-12-02T02:35:31.720Z,23.93
2022-12-02T02:36:04.222Z,24.33
2022-12-02T02:36:37.153Z,23.00
2022-12-02T02:37:09.895Z,23.77
2022-12-02T02:37:42.198Z,23.30
2022-12-02T02:38:16.826Z,21.93
2022-12-02T02:38:49.897Z,23.27
2022-12-02T02:39:22.948Z,23.50
2022-12-02T02:39:55.003Z,23.77
2022-12-02T02:40:28.784Z,23.10
2022-12-02T02:41:01.488Z,25.83
2022-12-02T02:41:33.633Z,23.33
2022-12-02T02:42:05.687Z,22.87
2022-12-02T02:42:37.881Z,25.20
2022-12-02T02:43:10.426Z,22.87
2022-12-02T02:43:43.201Z,23.17
2022-12-02T02:44:15.977Z,24.27
2022-12-02T02:44:48.475Z,23.67
2022-12-02T02:45:21.945Z,22.73
2022-12-02T02:45:54.491Z,24.27
2022-12-02T02:46:29.656Z,24.27
2022-12-02T02:47:01.734Z,25.43
2022-12-02T02:47:34.031Z,23.07
2022-12-02T02:48:07.661Z,24.60
2022-12-02T02:48:40.341Z,24.53
2022-12-02T02:49:12.519Z,24.67
2022-12-02T02:49:45.770Z,24.03
2022-12-02T02:50:18.303Z,23.40
2022-12-02T02:50:50.289Z,24.87
2022-12-02T02:51:23.914Z,24.50
2022-12-02T02:51:56.149Z,23.80
2022-12-02T02:52:28.162Z,25.07
2022-12-02T02:53:01.488Z,23.03
2022-12-02T02:53:34.455Z,25.10
2022-12-02T02:54:08.004Z,24.07
2022-12-02T02:54:40.039Z,23.17
2022-12-02T02:55:15.036Z,24.17
2022-12-02T02:55:47.142Z,23.53
2022-12-02T02:56:19.501Z,23.60
2022-12-02T02:56:51.595Z,23.53
2022-12-02T02:57:23.717Z,24.70
2022-12-02T02:58:08.177Z,24.37
2022-12-02T02:58:40.222Z,24.73
2022-12-02T02:59:13.427Z,23.60
2022-12-02T02:59:46.104Z,23.60
2022-12-02T03:00:19.512Z,23.33
2022-12-02T03:00:52.163Z,23.90
2022-12-02T03:01:29.273Z,24.30
2022-12-02T03:02:03.618Z,24.60
2022-12-02T03:02:35.778Z,23.13
2022-12-02T03:03:08.767Z,24.20
2022-12-02T03:04:06.941Z,23.60
2022-12-02T03:04:40.033Z,24.37
2022-12-02T03:05:12.623Z,24.87
2022-12-02T03:05:45.575Z,24.63
2022-12-02T03:06:18.243Z,24.03
2022-12-02T03:06:50.817Z,23.33
2022-12-02T03:07:22.928Z,23.83
2022-12-02T03:07:55.050Z,23.30
2022-12-02T03:08:29.245Z,24.57
2022-12-02T03:09:02.059Z,25.33
2022-12-02T03:09:35.280Z,24.03
2022-12-02T03:10:07.881Z,24.27
2022-12-02T03:10:40.340Z,23.87
2022-12-02T03:11:12.475Z,24.60
2022-12-02T03:11:45.859Z,24.63
2022-12-02T03:12:18.204Z,24.80
2022-12-02T03:12:53.635Z,23.53
2022-12-02T03:13:26.295Z,24.30
2022-12-02T03:13:59.345Z,24.13
2022-12-02T03:14:31.303Z,24.50
2022-12-02T03:15:04.242Z,23.53
2022-12-02T03:15:36.337Z,23.90
2022-12-02T03:16:09.316Z,24.23
2022-12-02T03:16:41.518Z,24.13
2022-12-02T03:17:13.748Z,23.47
2022-12-02T03:17:45.912Z,24.60
2022-12-02T03:18:18.139Z,23.50
2022-12-02T03:18:51.303Z,24.27
2022-12-02T03:19:23.295Z,25.03
2022-12-02T03:19:55.500Z,23.87
2022-12-02T03:20:27.656Z,23.83
2022-12-02T03:20:59.883Z,23.20
2022-12-02T03:21:33.662Z,24.13
2022-12-02T03:22:05.925Z,24.20
2022-12-02T03:22:37.899Z,23.90
2022-12-02T03:23:09.968Z,23.43
2022-12-02T03:23:41.964Z,23.00
2022-12-02T03:24:14.140Z,24.97
2022-12-02T03:24:46.192Z,23.70
2022-12-02T03:25:18.258Z,23.63
2022-12-02T03:25:50.351Z,23.67
2022-12-02T03:26:22.471Z,23.33
2022-12-02T03:26:54.455Z,24.73
2022-12-02T03:27:28.009Z,23.57
2022-12-02T03:28:00.014Z,24.63
2022-12-02T03:28:32.392Z,24.07
2022-12-02T03:29:05.058Z,24.13
2022-12-02T03:29:37.590Z,25.60
2022-12-02T03:30:10.915Z,24.60
2022-12-02T03:30:44.777Z,24.07
2022-12-02T03:31:17.113Z,24.23
2022-12-02T03:31:49.446Z,25.53
2022-12-02T03:32:21.408Z,23.60
2022-12-02T03:32:53.919Z,24.57
2022-12-02T03:33:26.174Z,23.27
2022-12-02T03:33:58.223Z,24.17
2022-12-02T03:34:30.331Z,24.27
2022-12-02T03:35:02.503Z,24.20
2022-12-02T03:35:34.522Z,25.00
2022-12-02T03:36:06.966Z,24.33
2022-12-02T03:36:39.067Z,24.67
2022-12-02T03:37:11.177Z,24.70
2022-12-02T03:37:43.205Z,25.43
2022-12-02T03:38:15.394Z,23.77
2022-12-02T03:38:47.458Z,23.93
2022-12-02T03:39:19.631Z,24.57
2022-12-02T03:39:51.756Z,24.10
2022-12-02T03:40:23.924Z,24.37
2022-12-02T03:40:56.278Z,24.27
2022-12-02T03:41:28.465Z,24.97
2022-12-02T03:42:00.496Z,25.17
2022-12-02T03:42:32.650Z,25.20
2022-12-02T03:43:04.623Z,24.70
2022-12-02T03:43:36.627Z,24.17
2022-12-02T03:44:08.936Z,24.37
2022-12-02T03:44:41.130Z,24.33
2022-12-02T03:45:13.155Z,24.00
2022-12-02T03:45:45.276Z,24.03
2022-12-02T03:46:17.329Z,24.47
2022-12-02T03:46:49.441Z,23.90
2022-12-02T03:47:21.475Z,24.77
2022-12-02T03:47:53.507Z,24.13
2022-12-02T03:48:25.844Z,24.47
2022-12-02T03:48:59.111Z,23.77
2022-12-02T03:49:32.894Z,22.80
2022-12-02T03:50:05.285Z,24.37
2022-12-02T03:50:37.467Z,24.87
2022-12-02T03:51:10.279Z,25.10
2022-12-02T03:51:42.440Z,24.17
2022-12-02T03:52:14.560Z,25.57
2022-12-02T03:52:46.523Z,25.07
2022-12-02T03:53:18.983Z,24.10
2022-12-02T03:53:51.162Z,24.27
2022-12-02T03:54:23.313Z,24.27
2022-12-02T03:54:55.775Z,24.07
2022-12-02T03:55:27.814Z,24.00
2022-12-02T03:56:02.407Z,24.23
2022-12-02T03:56:41.560Z,24.43
2022-12-02T03:57:13.555Z,24.47
2022-12-02T03:57:45.509Z,23.70
2022-12-02T03:58:17.478Z,24.27
2022-12-02T03:58:50.936Z,24.77
2022-12-02T03:59:25.285Z,24.00
2022-12-02T03:59:57.238Z,25.23
2022-12-02T04:00:29.226Z,24.77
2022-12-02T04:01:01.346Z,23.73
2022-12-02T04:01:33.487Z,24.93
2022-12-02T04:02:05.492Z,24.23
2022-12-02T04:02:37.531Z,24.07
2022-12-02T04:03:09.692Z,23.83
2022-12-02T04:03:41.762Z,23.53
2022-12-02T04:04:13.803Z,23.90
2022-12-02T04:04:45.821Z,24.23
2022-12-02T04:05:17.851Z,23.30
2022-12-02T04:05:49.908Z,25.50
2022-12-02T04:06:21.893Z,24.80
2022-12-02T04:06:53.949Z,24.80
2022-12-02T04:07:25.986Z,23.70
2022-12-02T04:07:58.052Z,24.97
2022-12-02T04:08:30.170Z,24.73
2022-12-02T04:09:02.236Z,24.20
2022-12-02T04:09:34.219Z,24.07
2022-12-02T04:10:06.627Z,24.00
2022-12-02T04:10:38.645Z,24.80
2022-12-02T04:11:10.667Z,24.33
2022-12-02T04:11:42.844Z,23.60
2022-12-02T04:12:14.877Z,23.43
2022-12-02T04:12:46.888Z,23.97
2022-12-02T04:13:18.929Z,24.30
2022-12-02T04:13:50.956Z,24.10
2022-12-02T04:14:22.977Z,23.87
2022-12-02T04:14:54.959Z,24.67
2022-12-02T04:15:26.988Z,24.60
2022-12-02T04:15:59.033Z,23.90
2022-12-02T04:16:31.248Z,23.83
2022-12-02T04:17:07.963Z,24.07
2022-12-02T04:17:40.445Z,23.43
2022-12-02T04:18:12.469Z,24.47
2022-12-02T04:18:44.559Z,23.97
2022-12-02T04:19:16.554Z,24.87
2022-12-02T04:19:49.061Z,23.63
2022-12-02T04:20:21.108Z,24.23
2022-12-02T04:20:53.157Z,23.27
2022-12-02T04:21:25.223Z,22.97
2022-12-02T04:21:57.219Z,25.17
2022-12-02T04:22:29.187Z,24.47
2022-12-02T04:23:01.119Z,24.13
2022-12-02T04:23:33.085Z,23.57
2022-12-02T04:24:05.277Z,23.50
2022-12-02T04:24:37.261Z,24.33
2022-12-02T04:25:09.342Z,24.57
2022-12-02T04:25:41.393Z,24.63
2022-12-02T04:26:13.601Z,23.33
2022-12-02T04:26:45.541Z,25.23
2022-12-02T04:27:17.554Z,24.97
2022-12-02T04:27:49.578Z,23.70
2022-12-02T04:28:21.677Z,24.13
2022-12-02T04:28:53.641Z,23.40
2022-12-02T04:29:25.643Z,22.17
2022-12-02T04:29:57.927Z,22.80
2022-12-02T04:30:29.908Z,23.47
2022-12-02T04:31:01.944Z,23.63
2022-12-02T04:31:33.983Z,22.43
2022-12-02T04:32:05.994Z,23.90
2022-12-02T04:32:38.099Z,22.17
2022-12-02T04:33:10.105Z,23.87
2022-12-02T04:33:42.065Z,23.30
2022-12-02T04:34:14.073Z,22.93
2022-12-02T04:34:46.072Z,22.80
2022-12-02T04:35:18.105Z,23.23
2022-12-02T04:35:50.129Z,23.00
2022-12-02T04:36:22.097Z,22.77
2022-12-02T04:36:54.123Z,22.67
2022-12-02T04:37:26.160Z,23.57
2022-12-02T04:37:58.386Z,23.70
2022-12-02T04:38:30.545Z,23.77
2022-12-02T04:39:02.654Z,22.00
2022-12-02T04:39:34.676Z,22.83
2022-12-02T04:40:07.112Z,23.13
2022-12-02T04:40:39.314Z,22.30
2022-12-02T04:41:11.302Z,22.00
2022-12-02T04:41:43.272Z,22.80
2022-12-02T04:42:15.231Z,21.93
2022-12-02T04:42:47.258Z,21.53
2022-12-02T04:43:19.253Z,22.03
2022-12-02T04:43:51.230Z,20.40
2022-12-02T04:44:23.199Z,20.87
2022-12-02T04:44:55.213Z,21.33
2022-12-02T04:45:27.262Z,22.57
2022-12-02T04:45:59.340Z,21.67
2022-12-02T04:46:31.324Z,21.00
2022-12-02T04:47:03.400Z,19.70
2022-12-02T04:47:35.384Z,20.27
2022-12-02T04:48:07.377Z,20.17
2022-12-02T04:48:39.370Z,22.10
2022-12-02T04:49:11.359Z,20.17
2022-12-02T04:49:43.395Z,21.90
2022-12-02T04:50:15.534Z,20.30
2022-12-02T04:50:47.465Z,20.73
2022-12-02T04:51:19.437Z,19.37
2022-12-02T04:51:51.375Z,19.53
2022-12-02T04:52:23.653Z,19.77
2022-12-02T04:52:55.637Z,20.00
2022-12-02T04:53:27.606Z,19.83
2022-12-02T04:53:59.596Z,19.93
2022-12-02T04:54:31.687Z,21.13
2022-12-02T04:55:03.869Z,20.13
2022-12-02T04:55:35.852Z,21.10
2022-12-02T04:56:08.020Z,20.50
2022-12-02T04:56:40.013Z,18.87
2022-12-02T04:57:11.996Z,20.13
2022-12-02T04:57:43.957Z,19.67
2022-12-02T04:58:15.988Z,19.63
2022-12-02T04:58:47.934Z,18.80
2022-12-02T04:59:20.077Z,18.83
2022-12-02T04:59:52.052Z,19.53
2022-12-02T05:00:24.157Z,18.87
2022-12-02T05:00:56.156Z,17.37
2022-12-02T05:01:28.155Z,18.73
2022-12-02T05:02:00.311Z,18.73
2022-12-02T05:02:32.298Z,19.30
2022-12-02T05:03:04.416Z,19.70
2022-12-02T05:03:36.479Z,19.93
2022-12-02T05:04:08.528Z,19.67
2022-12-02T05:04:40.788Z,17.77
2022-12-02T05:05:12.907Z,18.57
2022-12-02T05:05:44.936Z,18.73
2022-12-02T05:06:16.891Z,18.13
2022-12-02T05:06:48.870Z,18.80
2022-12-02T05:07:20.912Z,18.70
2022-12-02T05:07:53.001Z,18.90
2022-12-02T05:08:25.033Z,19.73
2022-12-02T05:08:57.002Z,18.57
2022-12-02T05:09:28.984Z,18.03
2022-12-02T05:10:00.994Z,17.47
2022-12-02T05:10:33.111Z,17.80
2022-12-02T05:11:05.241Z,18.50
2022-12-02T05:11:37.408Z,18.57
2022-12-02T05:12:09.441Z,17.67
2022-12-02T05:12:41.438Z,17.20
2022-12-02T05:13:13.381Z,17.87
2022-12-02T05:13:45.352Z,18.07
2022-12-02T05:14:17.393Z,19.07
2022-12-02T05:14:49.721Z,17.90
2022-12-02T05:15:21.995Z,17.10
2022-12-02T05:15:54.025Z,18.20
2022-12-02T05:16:26.072Z,18.03
2022-12-02T05:16:58.151Z,17.00
2022-12-02T05:17:31.232Z,18.60
2022-12-02T05:18:04.069Z,16.43
2022-12-02T05:18:36.019Z,16.57
2022-12-02T05:19:08.030Z,17.90
2022-12-02T05:19:40.128Z,17.17
2022-12-02T05:20:12.623Z,17.50
2022-12-02T05:20:44.675Z,16.43
2022-12-02T05:21:16.788Z,16.80
2022-12-02T05:21:48.802Z,15.73
2022-12-02T05:22:20.797Z,15.43
2022-12-02T05:22:52.749Z,16.20
2022-12-02T05:23:24.722Z,16.67
2022-12-02T05:23:56.682Z,15.30
2022-12-02T05:24:28.818Z,14.63
2022-12-02T05:25:00.799Z,17.10
2022-12-02T05:25:32.785Z,15.90
2022-12-02T05:26:04.882Z,15.90
2022-12-02T05:26:36.880Z,15.17
2022-12-02T05:27:08.830Z,15.87
2022-12-02T05:27:40.857Z,15.47
2022-12-02T05:28:12.823Z,15.47
2022-12-02T05:28:44.883Z,15.63
2022-12-02T05:29:16.874Z,14.90
2022-12-02T05:29:48.884Z,15.13
2022-12-02T05:30:20.837Z,15.07
2022-12-02T05:30:52.863Z,13.70
2022-12-02T05:31:24.882Z,15.97
2022-12-02T05:31:57.019Z,13.93
2022-12-02T05:32:29.045Z,14.80
2022-12-02T05:33:01.064Z,14.73
2022-12-02T05:33:33.070Z,14.77
2022-12-02T05:34:05.060Z,14.30
2022-12-02T05:34:37.130Z,15.13
2022-12-02T05:35:09.214Z,14.57
2022-12-02T05:35:41.342Z,14.77
2022-12-02T05:36:13.426Z,15.93
2022-12-02T05:36:45.542Z,15.53
2022-12-02T05:37:17.640Z,14.57
2022-12-02T05:37:49.724Z,14.97
2022-12-02T05:38:21.771Z,15.47
2022-12-02T05:38:53.771Z,16.00
2022-12-02T05:39:25.774Z,15.87
2022-12-02T05:39:58.895Z,15.43
2022-12-02T05:40:30.881Z,15.33
2022-12-02T05:41:02.853Z,16.00
2022-12-02T05:41:34.892Z,15.87
2022-12-02T05:42:07.788Z,16.37
2022-12-02T05:42:40.489Z,16.73
2022-12-02T05:43:20.352Z,15.93
2022-12-02T05:43:52.544Z,16.60
2022-12-02T05:44:28.218Z,15.57
2022-12-02T05:45:01.852Z,17.37
2022-12-02T05:45:33.869Z,17.00
2022-12-02T05:46:11.109Z,16.43
2022-12-02T05:46:43.175Z,16.97
2022-12-02T05:47:16.771Z,16.77
2022-12-02T05:47:49.870Z,16.43
2022-12-02T05:48:21.863Z,17.20
2022-12-02T05:48:53.793Z,16.50
2022-12-02T05:49:25.778Z,17.17
2022-12-02T05:49:59.186Z,16.43
2022-12-02T05:50:33.537Z,16.60
2022-12-02T05:51:09.874Z,16.47
2022-12-02T05:51:45.204Z,16.50
2022-12-02T05:52:19.480Z,15.90
2022-12-02T05:52:51.628Z,16.03
2022-12-02T05:53:27.333Z,16.37
2022-12-02T05:53:59.274Z,16.03
2022-12-02T05:54:31.657Z,16.20
2022-12-02T05:55:07.974Z,15.00
2022-12-02T05:55:40.146Z,16.60
2022-12-02T05:56:13.860Z,16.07
2022-12-02T05:56:46.384Z,16.33
2022-12-02T05:57:27.249Z,16.73
2022-12-02T05:58:01.711Z,15.57
2022-12-02T05:58:33.726Z,16.03
2022-12-02T05:59:08.197Z,17.13
2022-12-02T05:59:40.414Z,15.93
2022-12-02T06:00:14.422Z,17.10
2022-12-02T06:00:57.779Z,15.37
2022-12-02T06:01:33.810Z,16.63
2022-12-02T06:02:17.107Z,15.70
2022-12-02T06:02:50.727Z,15.47
2022-12-02T06:03:22.961Z,17.13
2022-12-02T06:03:55.120Z,16.53
2022-12-02T06:04:29.231Z,16.60
2022-12-02T06:05:01.270Z,16.10
2022-12-02T06:05:43.214Z,15.13
2022-12-02T06:06:16.179Z,16.33
2022-12-02T06:06:48.262Z,15.00
2022-12-02T06:07:20.265Z,16.27
2022-12-02T06:07:57.160Z,16.77
2022-12-02T06:08:39.240Z,16.50
2022-12-02T06:09:18.684Z,16.03
2022-12-02T06:09:52.036Z,15.37
2022-12-02T06:10:28.783Z,17.00
2022-12-02T06:11:01.976Z,16.70
2022-12-02T06:11:38.915Z,17.73
2022-12-02T06:12:17.325Z,17.87
2022-12-02T06:12:49.842Z,16.40
2022-12-02T06:13:22.996Z,15.87
2022-12-02T06:13:59.846Z,15.00
2022-12-02T06:14:33.494Z,16.50
2022-12-02T06:15:10.625Z,15.50
2022-12-02T06:15:42.688Z,16.33
2022-12-02T06:16:22.829Z,15.23
2022-12-02T06:16:57.074Z,15.03
2022-12-02T06:17:29.092Z,15.70
2022-12-02T06:18:01.122Z,15.70
2022-12-02T06:18:34.822Z,15.67
2022-12-02T06:19:15.047Z,15.83
2022-12-02T06:19:49.211Z,16.33
2022-12-02T06:20:26.054Z,16.23
2022-12-02T06:20:59.747Z,16.17
2022-12-02T06:21:32.193Z,16.37
2022-12-02T06:22:05.906Z,16.07
2022-12-02T06:22:38.256Z,15.27
2022-12-02T06:23:12.449Z,16.03
2022-12-02T06:23:45.682Z,16.67
2022-12-02T06:24:21.183Z,16.43
2022-12-02T06:24:54.278Z,16.00
2022-12-02T06:25:28.745Z,16.83
2022-12-02T06:26:00.820Z,16.80
2022-12-02T06:26:32.879Z,16.07
2022-12-02T06:27:04.896Z,15.13
2022-12-02T06:27:36.866Z,14.60
2022-12-02T06:28:21.036Z,16.73
2022-12-02T06:28:57.986Z,16.30
2022-12-02T06:29:30.684Z,16.37
2022-12-02T06:30:04.412Z,16.43
2022-12-02T06:30:36.384Z,16.33
2022-12-02T06:31:11.758Z,16.10
2022-12-02T06:31:44.378Z,15.80
2022-12-02T06:32:21.078Z,16.17
2022-12-02T06:32:57.472Z,16.83
2022-12-02T06:33:31.264Z,16.13
2022-12-02T06:34:18.722Z,16.20
2022-12-02T06:34:53.683Z,15.17
2022-12-02T06:35:34.946Z,14.83
2022-12-02T06:36:10.428Z,16.77
2022-12-02T06:36:42.483Z,15.97
2022-12-02T06:37:18.236Z,15.80
2022-12-02T06:37:51.321Z,14.93
2022-12-02T06:38:30.892Z,15.97
2022-12-02T06:39:06.643Z,15.90
2022-12-02T06:39:52.572Z,16.47
2022-12-02T06:40:32.227Z,15.57
2022-12-02T06:41:33.699Z,15.47
2022-12-02T06:42:15.723Z,15.40
2022-12-02T06:42:47.686Z,15.60
2022-12-02T06:43:24.634Z,14.93
2022-12-02T06:44:17.495Z,15.93
2022-12-02T06:45:06.211Z,16.03
2022-12-02T06:45:38.212Z,16.60
2022-12-02T06:46:19.661Z,15.70
2022-12-02T06:46:51.743Z,15.33
2022-12-02T06:47:32.726Z,15.33
2022-12-02T06:48:04.875Z,15.80
2022-12-02T06:48:37.238Z,15.63
2022-12-02T06:49:22.800Z,15.07
2022-12-02T06:49:54.804Z,15.03
2022-12-02T06:50:35.161Z,14.87
2022-12-02T06:51:19.519Z,14.80
2022-12-02T06:51:58.721Z,15.10
2022-12-02T06:52:33.662Z,15.03
2022-12-02T06:53:20.817Z,14.97
2022-12-02T06:53:52.785Z,14.77
2022-12-02T06:54:28.111Z,14.73
2022-12-02T06:55:00.544Z,14.63
2022-12-02T06:55:36.115Z,15.33
2022-12-02T06:56:18.059Z,15.10
2022-12-02T06:56:50.810Z,15.17
2022-12-02T06:57:22.877Z,15.03
2022-12-02T06:57:56.891Z,15.60
2022-12-02T06:58:30.287Z,16.20
2022-12-02T06:59:03.810Z,14.87
2022-12-02T06:59:35.789Z,14.77
2022-12-02T07:00:10.032Z,14.03
2022-12-02T07:00:42.026Z,15.03
2022-12-02T07:01:14.072Z,15.93
2022-12-02T07:01:46.229Z,15.27
2022-12-02T07:02:30.069Z,14.60
2022-12-02T07:03:02.446Z,15.70
2022-12-02T07:03:36.005Z,14.93
2022-12-02T07:04:07.985Z,16.10
2022-12-02T07:04:42.686Z,14.20
2022-12-02T07:05:19.269Z,14.50
2022-12-02T07:05:52.992Z,14.30
2022-12-02T07:06:25.701Z,14.57
2022-12-02T07:07:16.433Z,13.73
2022-12-02T07:07:48.722Z,14.63
2022-12-02T07:08:20.765Z,14.07
2022-12-02T07:08:55.468Z,14.70
2022-12-02T07:09:42.867Z,14.27
2022-12-02T07:10:22.193Z,14.17
2022-12-02T07:10:54.157Z,14.17
2022-12-02T07:11:50.382Z,14.03
2022-12-02T07:12:24.470Z,14.17
2022-12-02T07:12:57.445Z,13.87
2022-12-02T07:13:29.445Z,13.13
2022-12-02T07:14:01.435Z,13.50
2022-12-02T07:14:33.533Z,13.20
2022-12-02T07:15:11.621Z,12.77
2022-12-02T07:15:43.645Z,13.17
2022-12-02T07:16:30.264Z,13.63
2022-12-02T07:17:04.033Z,13.40
2022-12-02T07:17:37.046Z,13.00
2022-12-02T07:18:13.717Z,13.03
2022-12-02T07:18:46.180Z,11.60
2022-12-02T07:19:23.092Z,13.03
2022-12-02T07:20:03.063Z,11.97
2022-12-02T07:20:36.922Z,12.80
2022-12-02T07:21:13.068Z,12.10
2022-12-02T07:21:49.001Z,12.87
2022-12-02T07:22:25.050Z,12.90
2022-12-02T07:22:59.009Z,13.37
2022-12-02T07:23:31.640Z,13.30
2022-12-02T07:24:03.763Z,12.80
2022-12-02T07:24:35.699Z,12.57
2022-12-02T07:25:07.655Z,13.67
2022-12-02T07:25:42.412Z,12.10
2022-12-02T07:26:14.359Z,13.10
2022-12-02T07:26:46.817Z,12.40
2022-12-02T07:27:22.110Z,12.73
2022-12-02T07:27:54.121Z,13.27
2022-12-02T07:28:26.161Z,12.93
2022-12-02T07:29:15.034Z,12.53
2022-12-02T07:29:48.522Z,12.77
2022-12-02T07:30:26.194Z,12.33
2022-12-02T07:31:13.765Z,12.13
2022-12-02T07:31:46.941Z,12.97
2022-12-02T07:32:19.066Z,11.97
2022-12-02T07:32:51.612Z,12.33
2022-12-02T07:33:23.739Z,12.87
2022-12-02T07:33:55.892Z,12.63
2022-12-02T07:34:33.932Z,12.23
2022-12-02T07:35:06.543Z,12.10
2022-12-02T07:35:38.498Z,13.17
2022-12-02T07:36:10.493Z,11.97